sensor_id;sensor_type;location;lat;lon;timestamp;P1;durP1;ratioP1;P2;durP2;ratioP2
32734;SDS011;19112;51.076;3.706;2023-02-20T00:01:25;40.33;;;15.82;;
32734;SDS011;19112;51.076;3.706;2023-02-20T00:03:52;42.53;;;16.80;;
32734;SDS011;19112;51.076;3.706;2023-02-20T00:06:18;53.67;;;17.38;;
32734;SDS011;19112;51.076;3.706;2023-02-20T00:08:44;50.03;;;19.25;;
32734;SDS011;19112;51.076;3.706;2023-02-20T00:11:10;40.70;;;16.50;;
32734;SDS011;19112;51.076;3.706;2023-02-20T00:13:36;51.17;;;18.08;;
32734;SDS011;19112;51.076;3.706;2023-02-20T00:16:02;47.50;;;17.17;;
32734;SDS011;19112;51.076;3.706;2023-02-20T00:18:28;49.40;;;17.52;;
32734;SDS011;19112;51.076;3.706;2023-02-20T00:20:54;34.92;;;15.32;;
32734;SDS011;19112;51.076;3.706;2023-02-20T00:23:20;39.97;;;15.13;;
32734;SDS011;19112;51.076;3.706;2023-02-20T00:25:45;49.13;;;15.05;;
32734;SDS011;19112;51.076;3.706;2023-02-20T00:28:12;38.33;;;12.77;;
32734;SDS011;19112;51.076;3.706;2023-02-20T00:30:38;34.10;;;13.60;;
32734;SDS011;19112;51.076;3.706;2023-02-20T00:33:04;37.85;;;13.48;;
32734;SDS011;19112;51.076;3.706;2023-02-20T00:35:30;37.55;;;12.95;;
32734;SDS011;19112;51.076;3.706;2023-02-20T00:37:55;37.40;;;13.27;;
32734;SDS011;19112;51.076;3.706;2023-02-20T00:40:22;42.17;;;13.02;;
32734;SDS011;19112;51.076;3.706;2023-02-20T00:42:49;42.83;;;13.48;;
32734;SDS011;19112;51.076;3.706;2023-02-20T00:45:16;45.63;;;13.43;;
32734;SDS011;19112;51.076;3.706;2023-02-20T00:47:42;35.50;;;13.52;;
32734;SDS011;19112;51.076;3.706;2023-02-20T00:50:08;47.05;;;14.45;;
32734;SDS011;19112;51.076;3.706;2023-02-20T00:52:37;42.65;;;12.73;;
32734;SDS011;19112;51.076;3.706;2023-02-20T00:55:03;29.73;;;11.90;;
32734;SDS011;19112;51.076;3.706;2023-02-20T00:57:30;38.38;;;12.60;;
32734;SDS011;19112;51.076;3.706;2023-02-20T00:59:56;34.60;;;12.45;;
32734;SDS011;19112;51.076;3.706;2023-02-20T01:02:22;35.60;;;11.77;;
32734;SDS011;19112;51.076;3.706;2023-02-20T01:04:48;38.25;;;12.55;;
32734;SDS011;19112;51.076;3.706;2023-02-20T01:07:14;35.83;;;12.70;;
32734;SDS011;19112;51.076;3.706;2023-02-20T01:09:40;30.13;;;11.13;;
32734;SDS011;19112;51.076;3.706;2023-02-20T01:12:06;37.33;;;13.05;;
32734;SDS011;19112;51.076;3.706;2023-02-20T01:14:32;40.80;;;13.38;;
32734;SDS011;19112;51.076;3.706;2023-02-20T01:16:58;41.67;;;11.57;;
32734;SDS011;19112;51.076;3.706;2023-02-20T01:19:24;40.05;;;13.57;;
32734;SDS011;19112;51.076;3.706;2023-02-20T01:21:50;34.03;;;11.65;;
32734;SDS011;19112;51.076;3.706;2023-02-20T01:24:16;40.67;;;14.35;;
32734;SDS011;19112;51.076;3.706;2023-02-20T01:26:44;40.08;;;11.02;;
32734;SDS011;19112;51.076;3.706;2023-02-20T01:29:12;37.55;;;12.15;;
32734;SDS011;19112;51.076;3.706;2023-02-20T01:31:38;38.08;;;12.25;;
32734;SDS011;19112;51.076;3.706;2023-02-20T01:34:04;46.15;;;12.05;;
32734;SDS011;19112;51.076;3.706;2023-02-20T01:36:30;38.00;;;12.50;;
32734;SDS011;19112;51.076;3.706;2023-02-20T01:38:56;40.10;;;12.45;;
32734;SDS011;19112;51.076;3.706;2023-02-20T01:41:23;39.17;;;12.68;;
32734;SDS011;19112;51.076;3.706;2023-02-20T01:43:49;37.72;;;11.75;;
32734;SDS011;19112;51.076;3.706;2023-02-20T01:48:54;42.25;;;13.40;;
32734;SDS011;19112;51.076;3.706;2023-02-20T01:51:28;40.58;;;13.25;;
32734;SDS011;19112;51.076;3.706;2023-02-20T01:53:58;41.85;;;13.13;;
32734;SDS011;19112;51.076;3.706;2023-02-20T01:56:24;34.55;;;12.73;;
32734;SDS011;19112;51.076;3.706;2023-02-20T01:58:51;39.33;;;12.20;;
32734;SDS011;19112;51.076;3.706;2023-02-20T02:01:17;42.20;;;12.75;;
32734;SDS011;19112;51.076;3.706;2023-02-20T02:03:44;38.55;;;12.85;;
32734;SDS011;19112;51.076;3.706;2023-02-20T02:06:14;36.85;;;12.27;;
32734;SDS011;19112;51.076;3.706;2023-02-20T02:08:41;39.58;;;12.30;;
32734;SDS011;19112;51.076;3.706;2023-02-20T02:11:13;43.00;;;11.50;;
32734;SDS011;19112;51.076;3.706;2023-02-20T02:13:42;30.70;;;11.05;;
32734;SDS011;19112;51.076;3.706;2023-02-20T02:25:12;40.80;;;11.13;;
32734;SDS011;19112;51.076;3.706;2023-02-20T02:50:39;35.42;;;8.57;;
32734;SDS011;19112;51.076;3.706;2023-02-20T02:53:08;33.75;;;8.90;;
32734;SDS011;19112;51.076;3.706;2023-02-20T02:55:36;36.80;;;9.50;;
32734;SDS011;19112;51.076;3.706;2023-02-20T02:58:03;29.33;;;8.95;;
32734;SDS011;19112;51.076;3.706;2023-02-20T03:00:44;32.80;;;8.68;;
32734;SDS011;19112;51.076;3.706;2023-02-20T03:03:22;35.47;;;11.48;;
32734;SDS011;19112;51.076;3.706;2023-02-20T03:05:58;37.63;;;9.05;;
32734;SDS011;19112;51.076;3.706;2023-02-20T03:08:48;37.33;;;9.07;;
32734;SDS011;19112;51.076;3.706;2023-02-20T03:11:31;30.27;;;8.43;;
32734;SDS011;19112;51.076;3.706;2023-02-20T03:14:16;38.25;;;9.63;;
32734;SDS011;19112;51.076;3.706;2023-02-20T03:20:05;32.53;;;9.88;;
32734;SDS011;19112;51.076;3.706;2023-02-20T03:22:37;27.58;;;9.27;;
32734;SDS011;19112;51.076;3.706;2023-02-20T03:25:17;39.03;;;10.45;;
32734;SDS011;19112;51.076;3.706;2023-02-20T03:27:57;34.38;;;9.85;;
32734;SDS011;19112;51.076;3.706;2023-02-20T03:30:41;36.45;;;10.52;;
32734;SDS011;19112;51.076;3.706;2023-02-20T03:36:31;34.80;;;10.73;;
32734;SDS011;19112;51.076;3.706;2023-02-20T03:39:29;34.70;;;11.02;;
32734;SDS011;19112;51.076;3.706;2023-02-20T03:42:18;40.50;;;11.60;;
32734;SDS011;19112;51.076;3.706;2023-02-20T03:45:05;37.47;;;11.02;;
32734;SDS011;19112;51.076;3.706;2023-02-20T03:47:33;36.78;;;13.07;;
32734;SDS011;19112;51.076;3.706;2023-02-20T03:50:04;40.30;;;12.48;;
32734;SDS011;19112;51.076;3.706;2023-02-20T03:52:33;38.70;;;12.45;;
32734;SDS011;19112;51.076;3.706;2023-02-20T03:54:58;40.72;;;11.77;;
32734;SDS011;19112;51.076;3.706;2023-02-20T03:57:29;39.20;;;13.23;;
32734;SDS011;19112;51.076;3.706;2023-02-20T04:00:07;32.70;;;11.23;;
32734;SDS011;19112;51.076;3.706;2023-02-20T04:02:44;32.42;;;11.35;;
32734;SDS011;19112;51.076;3.706;2023-02-20T04:05:15;36.42;;;10.73;;
32734;SDS011;19112;51.076;3.706;2023-02-20T04:08:04;40.72;;;12.40;;
32734;SDS011;19112;51.076;3.706;2023-02-20T04:10:39;29.60;;;11.30;;
32734;SDS011;19112;51.076;3.706;2023-02-20T04:13:16;41.80;;;12.00;;
32734;SDS011;19112;51.076;3.706;2023-02-20T04:15:43;37.67;;;11.82;;
32734;SDS011;19112;51.076;3.706;2023-02-20T04:18:10;33.80;;;11.23;;
32734;SDS011;19112;51.076;3.706;2023-02-20T04:20:42;34.33;;;10.98;;
32734;SDS011;19112;51.076;3.706;2023-02-20T04:23:15;34.33;;;11.27;;
32734;SDS011;19112;51.076;3.706;2023-02-20T04:25:46;36.72;;;11.98;;
32734;SDS011;19112;51.076;3.706;2023-02-20T04:28:24;32.80;;;10.43;;
32734;SDS011;19112;51.076;3.706;2023-02-20T04:30:50;34.03;;;11.38;;
32734;SDS011;19112;51.076;3.706;2023-02-20T04:33:17;35.95;;;11.75;;
32734;SDS011;19112;51.076;3.706;2023-02-20T04:35:44;35.50;;;12.00;;
32734;SDS011;19112;51.076;3.706;2023-02-20T04:38:10;36.90;;;13.13;;
32734;SDS011;19112;51.076;3.706;2023-02-20T04:40:36;34.75;;;11.18;;
32734;SDS011;19112;51.076;3.706;2023-02-20T04:43:02;42.65;;;11.82;;
32734;SDS011;19112;51.076;3.706;2023-02-20T04:45:28;37.67;;;12.00;;
32734;SDS011;19112;51.076;3.706;2023-02-20T04:47:54;33.25;;;10.95;;
32734;SDS011;19112;51.076;3.706;2023-02-20T04:50:27;37.42;;;11.43;;
32734;SDS011;19112;51.076;3.706;2023-02-20T04:52:57;32.22;;;11.00;;
32734;SDS011;19112;51.076;3.706;2023-02-20T04:55:23;31.02;;;10.63;;
32734;SDS011;19112;51.076;3.706;2023-02-20T04:57:50;29.35;;;11.55;;
32734;SDS011;19112;51.076;3.706;2023-02-20T05:00:17;31.20;;;10.93;;
32734;SDS011;19112;51.076;3.706;2023-02-20T05:02:45;31.85;;;10.32;;
32734;SDS011;19112;51.076;3.706;2023-02-20T05:05:21;33.30;;;11.45;;
32734;SDS011;19112;51.076;3.706;2023-02-20T05:07:59;36.97;;;10.50;;
32734;SDS011;19112;51.076;3.706;2023-02-20T05:10:29;27.98;;;10.07;;
32734;SDS011;19112;51.076;3.706;2023-02-20T05:12:57;30.33;;;9.82;;
32734;SDS011;19112;51.076;3.706;2023-02-20T05:15:23;30.20;;;10.35;;
32734;SDS011;19112;51.076;3.706;2023-02-20T05:17:51;26.35;;;9.43;;
32734;SDS011;19112;51.076;3.706;2023-02-20T05:20:17;29.27;;;9.43;;
32734;SDS011;19112;51.076;3.706;2023-02-20T05:22:44;37.92;;;10.73;;
32734;SDS011;19112;51.076;3.706;2023-02-20T05:25:11;36.53;;;11.27;;
32734;SDS011;19112;51.076;3.706;2023-02-20T05:27:39;39.03;;;10.95;;
32734;SDS011;19112;51.076;3.706;2023-02-20T05:30:06;35.63;;;9.57;;
32734;SDS011;19112;51.076;3.706;2023-02-20T05:32:35;28.85;;;9.27;;
32734;SDS011;19112;51.076;3.706;2023-02-20T05:35:02;29.98;;;9.07;;
32734;SDS011;19112;51.076;3.706;2023-02-20T05:37:27;28.83;;;9.50;;
32734;SDS011;19112;51.076;3.706;2023-02-20T05:39:53;34.00;;;10.05;;
32734;SDS011;19112;51.076;3.706;2023-02-20T05:42:19;31.38;;;9.88;;
32734;SDS011;19112;51.076;3.706;2023-02-20T05:44:47;30.73;;;8.98;;
32734;SDS011;19112;51.076;3.706;2023-02-20T05:47:13;34.25;;;9.05;;
32734;SDS011;19112;51.076;3.706;2023-02-20T05:49:40;30.63;;;8.88;;
32734;SDS011;19112;51.076;3.706;2023-02-20T05:52:06;33.10;;;10.55;;
32734;SDS011;19112;51.076;3.706;2023-02-20T05:54:36;34.20;;;8.60;;
32734;SDS011;19112;51.076;3.706;2023-02-20T05:57:03;30.40;;;9.63;;
32734;SDS011;19112;51.076;3.706;2023-02-20T05:59:29;27.50;;;8.35;;
32734;SDS011;19112;51.076;3.706;2023-02-20T06:01:56;26.83;;;8.68;;
32734;SDS011;19112;51.076;3.706;2023-02-20T06:04:24;31.20;;;9.07;;
32734;SDS011;19112;51.076;3.706;2023-02-20T06:06:51;27.75;;;8.82;;
32734;SDS011;19112;51.076;3.706;2023-02-20T06:09:17;26.25;;;8.75;;
32734;SDS011;19112;51.076;3.706;2023-02-20T06:11:53;22.77;;;8.55;;
32734;SDS011;19112;51.076;3.706;2023-02-20T06:14:21;25.30;;;8.90;;
32734;SDS011;19112;51.076;3.706;2023-02-20T06:16:49;32.58;;;9.40;;
32734;SDS011;19112;51.076;3.706;2023-02-20T06:19:18;30.38;;;9.02;;
32734;SDS011;19112;51.076;3.706;2023-02-20T06:21:47;31.73;;;9.70;;
32734;SDS011;19112;51.076;3.706;2023-02-20T06:24:15;31.35;;;10.73;;
32734;SDS011;19112;51.076;3.706;2023-02-20T06:26:43;35.47;;;11.57;;
32734;SDS011;19112;51.076;3.706;2023-02-20T06:29:10;33.03;;;11.55;;
32734;SDS011;19112;51.076;3.706;2023-02-20T06:31:38;30.10;;;10.82;;
32734;SDS011;19112;51.076;3.706;2023-02-20T06:34:04;34.92;;;11.60;;
32734;SDS011;19112;51.076;3.706;2023-02-20T06:36:33;35.08;;;11.85;;
32734;SDS011;19112;51.076;3.706;2023-02-20T06:39:03;30.83;;;11.95;;
32734;SDS011;19112;51.076;3.706;2023-02-20T06:41:30;31.90;;;11.07;;
32734;SDS011;19112;51.076;3.706;2023-02-20T06:43:56;30.52;;;11.38;;
32734;SDS011;19112;51.076;3.706;2023-02-20T06:46:22;29.88;;;10.90;;
32734;SDS011;19112;51.076;3.706;2023-02-20T06:48:53;32.83;;;10.75;;
32734;SDS011;19112;51.076;3.706;2023-02-20T06:51:22;34.13;;;11.85;;
32734;SDS011;19112;51.076;3.706;2023-02-20T06:53:54;33.92;;;11.00;;
32734;SDS011;19112;51.076;3.706;2023-02-20T06:56:21;32.03;;;11.82;;
32734;SDS011;19112;51.076;3.706;2023-02-20T06:58:51;29.75;;;11.88;;
32734;SDS011;19112;51.076;3.706;2023-02-20T07:01:18;34.65;;;12.93;;
32734;SDS011;19112;51.076;3.706;2023-02-20T07:03:49;32.22;;;12.05;;
32734;SDS011;19112;51.076;3.706;2023-02-20T07:06:15;28.60;;;11.57;;
32734;SDS011;19112;51.076;3.706;2023-02-20T07:08:41;32.25;;;11.55;;
32734;SDS011;19112;51.076;3.706;2023-02-20T07:11:07;26.17;;;10.77;;
32734;SDS011;19112;51.076;3.706;2023-02-20T07:13:34;31.02;;;11.40;;
32734;SDS011;19112;51.076;3.706;2023-02-20T07:16:00;24.00;;;10.85;;
32734;SDS011;19112;51.076;3.706;2023-02-20T07:18:25;33.40;;;12.55;;
32734;SDS011;19112;51.076;3.706;2023-02-20T07:20:52;31.17;;;11.07;;
32734;SDS011;19112;51.076;3.706;2023-02-20T07:23:18;30.65;;;11.35;;
32734;SDS011;19112;51.076;3.706;2023-02-20T07:25:45;28.45;;;11.90;;
32734;SDS011;19112;51.076;3.706;2023-02-20T07:28:12;31.73;;;10.98;;
32734;SDS011;19112;51.076;3.706;2023-02-20T07:30:38;27.95;;;10.52;;
32734;SDS011;19112;51.076;3.706;2023-02-20T07:33:04;32.75;;;12.05;;
32734;SDS011;19112;51.076;3.706;2023-02-20T07:35:30;26.98;;;10.98;;
32734;SDS011;19112;51.076;3.706;2023-02-20T07:37:56;32.10;;;12.80;;
32734;SDS011;19112;51.076;3.706;2023-02-20T07:40:21;35.25;;;12.15;;
32734;SDS011;19112;51.076;3.706;2023-02-20T07:42:47;34.00;;;12.63;;
32734;SDS011;19112;51.076;3.706;2023-02-20T07:45:13;29.10;;;12.00;;
32734;SDS011;19112;51.076;3.706;2023-02-20T07:47:39;32.17;;;13.18;;
32734;SDS011;19112;51.076;3.706;2023-02-20T07:50:05;34.55;;;13.23;;
32734;SDS011;19112;51.076;3.706;2023-02-20T07:52:31;36.08;;;13.50;;
32734;SDS011;19112;51.076;3.706;2023-02-20T07:54:57;35.95;;;14.80;;
32734;SDS011;19112;51.076;3.706;2023-02-20T07:57:22;33.53;;;14.73;;
32734;SDS011;19112;51.076;3.706;2023-02-20T07:59:48;35.65;;;13.68;;
32734;SDS011;19112;51.076;3.706;2023-02-20T08:02:14;33.78;;;13.68;;
32734;SDS011;19112;51.076;3.706;2023-02-20T08:04:40;34.10;;;14.10;;
32734;SDS011;19112;51.076;3.706;2023-02-20T08:07:06;32.92;;;14.45;;
32734;SDS011;19112;51.076;3.706;2023-02-20T08:09:32;34.38;;;13.43;;
32734;SDS011;19112;51.076;3.706;2023-02-20T08:11:57;34.95;;;14.57;;
32734;SDS011;19112;51.076;3.706;2023-02-20T08:14:23;34.97;;;14.40;;
32734;SDS011;19112;51.076;3.706;2023-02-20T08:16:49;35.30;;;13.50;;
32734;SDS011;19112;51.076;3.706;2023-02-20T08:19:15;35.35;;;14.45;;
32734;SDS011;19112;51.076;3.706;2023-02-20T08:21:41;32.75;;;14.23;;
32734;SDS011;19112;51.076;3.706;2023-02-20T08:24:06;35.30;;;15.40;;
32734;SDS011;19112;51.076;3.706;2023-02-20T08:26:32;34.72;;;15.40;;
32734;SDS011;19112;51.076;3.706;2023-02-20T08:28:59;34.92;;;14.05;;
32734;SDS011;19112;51.076;3.706;2023-02-20T08:31:25;36.70;;;13.85;;
32734;SDS011;19112;51.076;3.706;2023-02-20T08:33:52;32.10;;;15.20;;
32734;SDS011;19112;51.076;3.706;2023-02-20T08:36:18;33.50;;;15.07;;
32734;SDS011;19112;51.076;3.706;2023-02-20T08:38:44;38.92;;;15.32;;
32734;SDS011;19112;51.076;3.706;2023-02-20T08:41:10;36.50;;;14.82;;
32734;SDS011;19112;51.076;3.706;2023-02-20T08:43:37;38.38;;;15.05;;
32734;SDS011;19112;51.076;3.706;2023-02-20T08:46:05;35.35;;;15.35;;
32734;SDS011;19112;51.076;3.706;2023-02-20T08:48:31;35.20;;;15.30;;
32734;SDS011;19112;51.076;3.706;2023-02-20T08:50:58;36.83;;;15.35;;
32734;SDS011;19112;51.076;3.706;2023-02-20T08:53:24;40.00;;;15.68;;
32734;SDS011;19112;51.076;3.706;2023-02-20T08:55:50;42.58;;;16.23;;
32734;SDS011;19112;51.076;3.706;2023-02-20T08:58:20;33.80;;;15.40;;
32734;SDS011;19112;51.076;3.706;2023-02-20T09:00:48;36.00;;;16.13;;
32734;SDS011;19112;51.076;3.706;2023-02-20T09:03:14;36.72;;;15.20;;
32734;SDS011;19112;51.076;3.706;2023-02-20T09:05:40;42.42;;;15.00;;
32734;SDS011;19112;51.076;3.706;2023-02-20T09:08:07;36.15;;;13.27;;
32734;SDS011;19112;51.076;3.706;2023-02-20T09:10:34;41.10;;;13.82;;
32734;SDS011;19112;51.076;3.706;2023-02-20T09:13:00;34.78;;;14.48;;
32734;SDS011;19112;51.076;3.706;2023-02-20T09:15:27;29.17;;;13.30;;
32734;SDS011;19112;51.076;3.706;2023-02-20T09:17:53;33.67;;;13.73;;
32734;SDS011;19112;51.076;3.706;2023-02-20T09:20:20;34.42;;;13.13;;
32734;SDS011;19112;51.076;3.706;2023-02-20T09:22:49;34.42;;;14.85;;
32734;SDS011;19112;51.076;3.706;2023-02-20T09:25:16;34.35;;;12.45;;
32734;SDS011;19112;51.076;3.706;2023-02-20T09:27:43;32.60;;;13.23;;
32734;SDS011;19112;51.076;3.706;2023-02-20T09:30:09;29.83;;;13.05;;
32734;SDS011;19112;51.076;3.706;2023-02-20T09:32:43;34.33;;;13.80;;
32734;SDS011;19112;51.076;3.706;2023-02-20T09:35:21;34.67;;;13.50;;
32734;SDS011;19112;51.076;3.706;2023-02-20T09:37:53;38.70;;;14.77;;
32734;SDS011;19112;51.076;3.706;2023-02-20T09:40:26;33.03;;;14.68;;
32734;SDS011;19112;51.076;3.706;2023-02-20T09:45:51;35.15;;;12.77;;
32734;SDS011;19112;51.076;3.706;2023-02-20T09:51:16;32.22;;;12.15;;
32734;SDS011;19112;51.076;3.706;2023-02-20T09:53:50;31.08;;;11.80;;
32734;SDS011;19112;51.076;3.706;2023-02-20T09:56:33;35.97;;;13.45;;
32734;SDS011;19112;51.076;3.706;2023-02-20T10:02:32;35.30;;;12.68;;
32734;SDS011;19112;51.076;3.706;2023-02-20T10:04:51;31.73;;;13.07;;
32734;SDS011;19112;51.076;3.706;2023-02-20T10:09:54;29.63;;;12.52;;
32734;SDS011;19112;51.076;3.706;2023-02-20T10:23:55;30.90;;;12.90;;
32734;SDS011;19112;51.076;3.706;2023-02-20T10:26:35;34.40;;;13.98;;
32734;SDS011;19112;51.076;3.706;2023-02-20T10:29:17;29.88;;;12.45;;
32734;SDS011;19112;51.076;3.706;2023-02-20T10:32:03;33.00;;;12.77;;
32734;SDS011;19112;51.076;3.706;2023-02-20T10:34:41;33.05;;;12.73;;
32734;SDS011;19112;51.076;3.706;2023-02-20T10:37:17;34.88;;;12.95;;
32734;SDS011;19112;51.076;3.706;2023-02-20T10:40:01;31.25;;;13.90;;
32734;SDS011;19112;51.076;3.706;2023-02-20T10:42:54;30.48;;;12.88;;
32734;SDS011;19112;51.076;3.706;2023-02-20T10:48:29;29.48;;;11.50;;
32734;SDS011;19112;51.076;3.706;2023-02-20T10:51:01;24.50;;;9.90;;
32734;SDS011;19112;51.076;3.706;2023-02-20T10:53:51;29.67;;;10.80;;
32734;SDS011;19112;51.076;3.706;2023-02-20T10:56:49;26.17;;;8.77;;
32734;SDS011;19112;51.076;3.706;2023-02-20T10:59:23;24.02;;;8.88;;
32734;SDS011;19112;51.076;3.706;2023-02-20T11:02:04;21.75;;;7.85;;
32734;SDS011;19112;51.076;3.706;2023-02-20T11:04:40;17.92;;;7.35;;
32734;SDS011;19112;51.076;3.706;2023-02-20T11:07:14;23.70;;;7.68;;
32734;SDS011;19112;51.076;3.706;2023-02-20T11:09:46;27.45;;;7.68;;
32734;SDS011;19112;51.076;3.706;2023-02-20T11:15:13;18.52;;;6.63;;
32734;SDS011;19112;51.076;3.706;2023-02-20T11:17:51;18.98;;;7.53;;
32734;SDS011;19112;51.076;3.706;2023-02-20T11:23:02;29.80;;;12.00;;
32734;SDS011;19112;51.076;3.706;2023-02-20T11:28:21;30.08;;;12.77;;
32734;SDS011;19112;51.076;3.706;2023-02-20T11:30:57;24.90;;;11.75;;
32734;SDS011;19112;51.076;3.706;2023-02-20T11:33:32;29.55;;;10.38;;
32734;SDS011;19112;51.076;3.706;2023-02-20T11:36:21;27.27;;;9.82;;
32734;SDS011;19112;51.076;3.706;2023-02-20T11:39:02;26.23;;;9.07;;
32734;SDS011;19112;51.076;3.706;2023-02-20T11:42:03;22.52;;;8.02;;
32734;SDS011;19112;51.076;3.706;2023-02-20T11:44:39;31.05;;;8.88;;
32734;SDS011;19112;51.076;3.706;2023-02-20T11:47:22;23.95;;;8.45;;
32734;SDS011;19112;51.076;3.706;2023-02-20T11:50:16;20.92;;;8.20;;
32734;SDS011;19112;51.076;3.706;2023-02-20T11:52:56;24.67;;;9.88;;
32734;SDS011;19112;51.076;3.706;2023-02-20T11:55:28;26.95;;;9.60;;
32734;SDS011;19112;51.076;3.706;2023-02-20T11:57:54;22.25;;;10.30;;
32734;SDS011;19112;51.076;3.706;2023-02-20T12:00:24;25.73;;;10.52;;
32734;SDS011;19112;51.076;3.706;2023-02-20T12:11:20;23.50;;;9.93;;
32734;SDS011;19112;51.076;3.706;2023-02-20T12:13:51;26.02;;;10.88;;
32734;SDS011;19112;51.076;3.706;2023-02-20T12:27:28;31.65;;;10.18;;
32734;SDS011;19112;51.076;3.706;2023-02-20T12:39:33;30.25;;;13.63;;
32734;SDS011;19112;51.076;3.706;2023-02-20T12:44:46;25.20;;;11.93;;
32734;SDS011;19112;51.076;3.706;2023-02-20T12:47:38;26.80;;;12.70;;
32734;SDS011;19112;51.076;3.706;2023-02-20T12:54:04;32.40;;;11.77;;
32734;SDS011;19112;51.076;3.706;2023-02-20T12:56:57;28.85;;;12.23;;
32734;SDS011;19112;51.076;3.706;2023-02-20T13:02:32;27.33;;;11.45;;
32734;SDS011;19112;51.076;3.706;2023-02-20T13:05:11;26.50;;;10.93;;
32734;SDS011;19112;51.076;3.706;2023-02-20T13:07:46;22.40;;;9.25;;
32734;SDS011;19112;51.076;3.706;2023-02-20T13:10:31;29.25;;;9.20;;
32734;SDS011;19112;51.076;3.706;2023-02-20T13:13:07;21.35;;;8.63;;
32734;SDS011;19112;51.076;3.706;2023-02-20T13:15:37;21.52;;;7.57;;
32734;SDS011;19112;51.076;3.706;2023-02-20T13:21:21;22.27;;;11.18;;
32734;SDS011;19112;51.076;3.706;2023-02-20T13:23:50;28.27;;;11.23;;
32734;SDS011;19112;51.076;3.706;2023-02-20T13:29:17;27.90;;;11.57;;
32734;SDS011;19112;51.076;3.706;2023-02-20T13:36:58;23.85;;;10.30;;
32734;SDS011;19112;51.076;3.706;2023-02-20T13:42:00;29.15;;;9.98;;
32734;SDS011;19112;51.076;3.706;2023-02-20T13:54:54;23.75;;;10.15;;
32734;SDS011;19112;51.076;3.706;2023-02-20T13:57:31;24.13;;;10.07;;
32734;SDS011;19112;51.076;3.706;2023-02-20T13:59:58;25.63;;;10.20;;
32734;SDS011;19112;51.076;3.706;2023-02-20T14:02:26;19.98;;;9.15;;
32734;SDS011;19112;51.076;3.706;2023-02-20T14:04:59;20.40;;;9.60;;
32734;SDS011;19112;51.076;3.706;2023-02-20T14:07:34;24.35;;;10.32;;
32734;SDS011;19112;51.076;3.706;2023-02-20T14:10:12;23.90;;;10.40;;
32734;SDS011;19112;51.076;3.706;2023-02-20T14:13:11;25.83;;;9.90;;
32734;SDS011;19112;51.076;3.706;2023-02-20T14:15:57;24.08;;;9.45;;
32734;SDS011;19112;51.076;3.706;2023-02-20T14:21:15;25.48;;;9.65;;
32734;SDS011;19112;51.076;3.706;2023-02-20T14:23:49;23.92;;;8.98;;
32734;SDS011;19112;51.076;3.706;2023-02-20T14:26:21;29.90;;;11.65;;
32734;SDS011;19112;51.076;3.706;2023-02-20T14:28:56;28.15;;;9.63;;
32734;SDS011;19112;51.076;3.706;2023-02-20T14:44:57;28.70;;;9.27;;
32734;SDS011;19112;51.076;3.706;2023-02-20T14:47:29;23.58;;;8.68;;
32734;SDS011;19112;51.076;3.706;2023-02-20T14:55:43;26.48;;;9.10;;
32734;SDS011;19112;51.076;3.706;2023-02-20T14:58:13;26.23;;;9.32;;
32734;SDS011;19112;51.076;3.706;2023-02-20T15:00:44;22.73;;;9.15;;
32734;SDS011;19112;51.076;3.706;2023-02-20T15:03:23;21.65;;;8.82;;
32734;SDS011;19112;51.076;3.706;2023-02-20T15:05:52;26.77;;;9.70;;
32734;SDS011;19112;51.076;3.706;2023-02-20T15:10:49;23.63;;;10.07;;
32734;SDS011;19112;51.076;3.706;2023-02-20T15:13:19;26.05;;;9.48;;
32734;SDS011;19112;51.076;3.706;2023-02-20T15:16:03;27.55;;;9.40;;
32734;SDS011;19112;51.076;3.706;2023-02-20T15:18:45;24.83;;;9.13;;
32734;SDS011;19112;51.076;3.706;2023-02-20T15:21:12;23.67;;;9.85;;
32734;SDS011;19112;51.076;3.706;2023-02-20T15:23:44;21.95;;;8.40;;
32734;SDS011;19112;51.076;3.706;2023-02-20T15:29:34;23.38;;;7.85;;
32734;SDS011;19112;51.076;3.706;2023-02-20T15:34:29;18.70;;;7.97;;
32734;SDS011;19112;51.076;3.706;2023-02-20T15:36:59;19.17;;;7.35;;
32734;SDS011;19112;51.076;3.706;2023-02-20T15:39:25;20.92;;;8.13;;
32734;SDS011;19112;51.076;3.706;2023-02-20T15:41:51;21.80;;;8.80;;
32734;SDS011;19112;51.076;3.706;2023-02-20T15:44:18;17.83;;;7.82;;
32734;SDS011;19112;51.076;3.706;2023-02-20T15:46:44;22.40;;;8.32;;
32734;SDS011;19112;51.076;3.706;2023-02-20T15:49:10;20.85;;;8.00;;
32734;SDS011;19112;51.076;3.706;2023-02-20T15:51:38;23.27;;;8.30;;
32734;SDS011;19112;51.076;3.706;2023-02-20T15:54:06;22.30;;;8.48;;
32734;SDS011;19112;51.076;3.706;2023-02-20T15:56:41;18.85;;;8.68;;
32734;SDS011;19112;51.076;3.706;2023-02-20T15:59:08;20.35;;;8.65;;
32734;SDS011;19112;51.076;3.706;2023-02-20T16:01:36;22.20;;;9.25;;
32734;SDS011;19112;51.076;3.706;2023-02-20T16:04:04;21.05;;;8.98;;
32734;SDS011;19112;51.076;3.706;2023-02-20T16:06:31;23.70;;;9.48;;
32734;SDS011;19112;51.076;3.706;2023-02-20T16:08:57;22.77;;;10.05;;
32734;SDS011;19112;51.076;3.706;2023-02-20T16:11:25;22.23;;;9.80;;
32734;SDS011;19112;51.076;3.706;2023-02-20T16:14:02;23.85;;;9.77;;
32734;SDS011;19112;51.076;3.706;2023-02-20T16:16:32;24.42;;;10.23;;
32734;SDS011;19112;51.076;3.706;2023-02-20T16:19:24;24.83;;;10.55;;
32734;SDS011;19112;51.076;3.706;2023-02-20T16:21:50;24.40;;;11.15;;
32734;SDS011;19112;51.076;3.706;2023-02-20T16:24:15;25.95;;;12.43;;
32734;SDS011;19112;51.076;3.706;2023-02-20T16:26:42;32.92;;;12.23;;
32734;SDS011;19112;51.076;3.706;2023-02-20T16:29:16;28.17;;;12.23;;
32734;SDS011;19112;51.076;3.706;2023-02-20T16:34:31;28.17;;;12.45;;
32734;SDS011;19112;51.076;3.706;2023-02-20T16:39:23;27.00;;;12.73;;
32734;SDS011;19112;51.076;3.706;2023-02-20T16:41:50;30.70;;;12.02;;
32734;SDS011;19112;51.076;3.706;2023-02-20T16:47:09;28.67;;;13.70;;
32734;SDS011;19112;51.076;3.706;2023-02-20T16:49:38;29.20;;;13.18;;
32734;SDS011;19112;51.076;3.706;2023-02-20T16:52:24;28.70;;;13.30;;
32734;SDS011;19112;51.076;3.706;2023-02-20T16:54:53;24.77;;;12.90;;
32734;SDS011;19112;51.076;3.706;2023-02-20T16:57:21;27.25;;;11.93;;
32734;SDS011;19112;51.076;3.706;2023-02-20T16:59:49;29.98;;;13.15;;
32734;SDS011;19112;51.076;3.706;2023-02-20T17:02:21;29.50;;;13.68;;
32734;SDS011;19112;51.076;3.706;2023-02-20T17:04:50;28.92;;;12.68;;
32734;SDS011;19112;51.076;3.706;2023-02-20T17:07:16;32.42;;;13.68;;
32734;SDS011;19112;51.076;3.706;2023-02-20T17:09:42;34.53;;;13.10;;
32734;SDS011;19112;51.076;3.706;2023-02-20T17:12:09;28.40;;;13.38;;
32734;SDS011;19112;51.076;3.706;2023-02-20T17:14:35;27.80;;;12.95;;
32734;SDS011;19112;51.076;3.706;2023-02-20T17:17:01;29.20;;;13.25;;
32734;SDS011;19112;51.076;3.706;2023-02-20T17:19:28;28.77;;;13.35;;
32734;SDS011;19112;51.076;3.706;2023-02-20T17:21:56;30.23;;;14.07;;
32734;SDS011;19112;51.076;3.706;2023-02-20T17:24:23;32.20;;;12.05;;
32734;SDS011;19112;51.076;3.706;2023-02-20T17:26:49;27.05;;;13.27;;
32734;SDS011;19112;51.076;3.706;2023-02-20T17:29:15;28.40;;;12.88;;
32734;SDS011;19112;51.076;3.706;2023-02-20T17:31:41;26.55;;;12.48;;
32734;SDS011;19112;51.076;3.706;2023-02-20T17:34:07;33.30;;;15.38;;
32734;SDS011;19112;51.076;3.706;2023-02-20T17:36:33;29.15;;;13.05;;
32734;SDS011;19112;51.076;3.706;2023-02-20T17:38:59;26.55;;;13.90;;
32734;SDS011;19112;51.076;3.706;2023-02-20T17:41:25;31.15;;;14.07;;